KSPS

Sheppard AFB / Wichita Falls Municipal Airport

Wichita Falls, Texas, USA
METAR KSPS 100652Z AUTO 24003KT 10SM CLR 01/M03 A3035 RMK AO2 SLP280 T00111033
Observed Flight Rules
Dec-10 @ 06:52 UTC (28 minutes ago) Visual Flight Rules
Wind Visibility Clouds
240° at 3 knots 10 miles
  • Clear skies
Temperatures Readings
Current 1°C / 34°F
Dewpoint -3°C / 27°F
Humidity 75%
Altimeter 30.35" Hg
Pressure 1028 hPa
Elevation 308
METAR KSPS 100652Z AUTO 24003KT 10SM CLR 01/M03 A3035 RMK AO2 SLP280 T00111033
Observed Flight Rules
Dec-10 @ 06:52 UTC
(28 minutes ago)
VFR
Wind Visibility
240° at 3 knots 10 miles
Clouds
  • Clear skies
Temperature Dewpoint
1°C / 34°F -3°C / 27°F
Humidity Altimeter Pressure
75% 30.35" Hg 1028 hPa